createdAt,value
2017-05-09T00:00:13.981Z,1016.88
2017-05-09T00:00:40.076Z,1016.88
2017-05-09T00:01:06.189Z,1016.86
2017-05-09T00:01:32.295Z,1016.85
2017-05-09T00:01:58.393Z,1016.87
2017-05-09T00:02:24.507Z,1016.87
2017-05-09T00:02:50.610Z,1016.85
2017-05-09T00:03:16.739Z,1016.81
2017-05-09T00:03:42.902Z,1016.81
2017-05-09T00:04:09.053Z,1016.83
2017-05-09T00:04:35.168Z,1016.78
2017-05-09T00:05:01.322Z,1016.83
2017-05-09T00:05:27.446Z,1016.87
2017-05-09T00:05:53.557Z,1016.85
2017-05-09T00:06:19.681Z,1016.81
2017-05-09T00:06:45.785Z,1016.84
2017-05-09T00:07:11.870Z,1016.83
2017-05-09T00:07:37.995Z,1016.83
2017-05-09T00:08:04.127Z,1016.87
2017-05-09T00:08:30.243Z,1016.88
2017-05-09T00:08:56.361Z,1016.85
2017-05-09T00:09:22.509Z,1016.83
2017-05-09T00:09:48.660Z,1016.87
2017-05-09T00:10:14.819Z,1016.8
2017-05-09T00:10:40.906Z,1016.88
2017-05-09T00:11:07.052Z,1016.85
2017-05-09T00:11:33.157Z,1016.82
2017-05-09T00:11:59.247Z,1016.81
2017-05-09T00:12:25.343Z,1016.79
2017-05-09T00:12:51.475Z,1016.8
2017-05-09T00:13:17.591Z,1016.81
2017-05-09T00:13:43.708Z,1016.8
2017-05-09T00:14:09.918Z,1016.79
2017-05-09T00:14:35.959Z,1016.78
2017-05-09T00:15:02.089Z,1016.78
2017-05-09T00:15:28.181Z,1016.79
2017-05-09T00:15:54.294Z,1016.75
2017-05-09T00:16:20.426Z,1016.76
2017-05-09T00:16:46.517Z,1016.78
2017-05-09T00:17:12.605Z,1016.77
2017-05-09T00:17:38.744Z,1016.77
2017-05-09T00:18:04.916Z,1016.76
2017-05-09T00:18:31.051Z,1016.76
2017-05-09T00:18:57.212Z,1016.76
2017-05-09T00:19:23.311Z,1016.74
2017-05-09T00:19:49.424Z,1016.74
2017-05-09T00:20:15.549Z,1016.74
2017-05-09T00:20:41.662Z,1016.75
2017-05-09T00:21:07.824Z,1016.74
2017-05-09T00:21:33.947Z,1016.71
2017-05-09T00:22:00.037Z,1016.7
2017-05-09T00:22:26.195Z,1016.75
2017-05-09T00:22:52.375Z,1016.71
2017-05-09T00:23:18.463Z,1016.73
2017-05-09T00:23:44.591Z,1016.75
2017-05-09T00:24:10.749Z,1016.69
2017-05-09T00:24:36.859Z,1016.74
2017-05-09T00:25:02.958Z,1016.73
2017-05-09T00:25:29.064Z,1016.74
2017-05-09T00:25:55.152Z,1016.7
2017-05-09T00:26:21.246Z,1016.72
2017-05-09T00:26:47.378Z,1016.73
2017-05-09T00:27:13.498Z,1016.7
2017-05-09T00:27:39.611Z,1016.68
2017-05-09T00:28:05.772Z,1016.7
2017-05-09T00:28:31.949Z,1016.68
2017-05-09T00:28:58.088Z,1016.68
2017-05-09T00:29:24.192Z,1016.7
2017-05-09T00:29:50.288Z,1016.72
2017-05-09T00:30:16.376Z,1016.67
2017-05-09T00:30:42.479Z,1016.69
2017-05-09T00:31:08.579Z,1016.68
2017-05-09T00:31:34.672Z,1016.67
2017-05-09T00:32:00.820Z,1016.67
2017-05-09T00:32:26.909Z,1016.69
2017-05-09T00:32:53.094Z,1016.72
2017-05-09T00:33:19.219Z,1016.66
2017-05-09T00:33:45.332Z,1016.7
2017-05-09T00:34:11.458Z,1016.67
2017-05-09T00:34:37.561Z,1016.61
2017-05-09T00:35:03.671Z,1016.67
2017-05-09T00:35:29.768Z,1016.65
2017-05-09T00:35:55.927Z,1016.64
2017-05-09T00:36:22.042Z,1016.65
2017-05-09T00:36:48.136Z,1016.62
2017-05-09T00:37:14.259Z,1016.62
2017-05-09T00:37:40.359Z,1016.62
2017-05-09T00:38:06.491Z,1016.62
2017-05-09T00:38:32.627Z,1016.6
2017-05-09T00:38:58.753Z,1016.62
2017-05-09T00:39:24.885Z,1016.59
2017-05-09T00:39:51.000Z,1016.58
2017-05-09T00:40:17.122Z,1016.62
2017-05-09T00:40:43.225Z,1016.63
2017-05-09T00:41:09.366Z,1016.56
2017-05-09T00:41:35.502Z,1016.55
2017-05-09T00:42:01.668Z,1016.59
2017-05-09T00:42:27.788Z,1016.6
2017-05-09T00:42:53.914Z,1016.59
2017-05-09T00:43:20.027Z,1016.6
2017-05-09T00:43:46.178Z,1016.58
2017-05-09T00:44:12.300Z,1016.58
2017-05-09T00:44:38.392Z,1016.56
2017-05-09T00:45:04.502Z,1016.58
2017-05-09T00:45:30.612Z,1016.58
2017-05-09T00:45:56.762Z,1016.53
2017-05-09T00:46:22.851Z,1016.56
2017-05-09T00:46:48.957Z,1016.58
2017-05-09T00:47:15.084Z,1016.55
2017-05-09T00:47:41.196Z,1016.6
2017-05-09T00:48:07.321Z,1016.58
2017-05-09T00:48:33.451Z,1016.59
2017-05-09T00:48:59.561Z,1016.6
2017-05-09T00:49:25.687Z,1016.56
2017-05-09T00:49:51.874Z,1016.57
2017-05-09T00:50:17.962Z,1016.59
2017-05-09T00:50:44.085Z,1016.6
2017-05-09T00:51:10.187Z,1016.59
2017-05-09T00:51:36.306Z,1016.56
2017-05-09T00:52:02.419Z,1016.61
2017-05-09T00:52:28.526Z,1016.62
2017-05-09T00:52:54.676Z,1016.62
2017-05-09T00:53:20.836Z,1016.63
2017-05-09T00:53:46.991Z,1016.58
2017-05-09T00:54:13.132Z,1016.59
2017-05-09T00:54:39.290Z,1016.58
2017-05-09T00:55:05.410Z,1016.61
2017-05-09T00:55:31.498Z,1016.61
2017-05-09T00:55:57.605Z,1016.57
2017-05-09T00:56:23.701Z,1016.6
2017-05-09T00:56:49.812Z,1016.55
2017-05-09T00:57:15.941Z,1016.58
2017-05-09T00:57:42.065Z,1016.58
2017-05-09T00:58:08.203Z,1016.55
2017-05-09T00:58:34.331Z,1016.55
2017-05-09T00:59:00.517Z,1016.56
2017-05-09T00:59:26.632Z,1016.51
2017-05-09T00:59:52.728Z,1016.53
2017-05-09T01:00:18.840Z,1016.53
2017-05-09T01:00:45.000Z,1016.51
2017-05-09T01:01:11.099Z,1016.5
2017-05-09T01:01:37.198Z,1016.51
2017-05-09T01:02:03.319Z,1016.51
2017-05-09T01:02:29.426Z,1016.49
2017-05-09T01:02:55.513Z,1016.51
2017-05-09T01:03:21.662Z,1016.51
2017-05-09T01:03:47.836Z,1016.5
2017-05-09T01:04:13.924Z,1016.53
2017-05-09T01:04:40.075Z,1016.49
2017-05-09T01:05:06.158Z,1016.46
2017-05-09T01:05:32.271Z,1016.49
2017-05-09T01:05:58.394Z,1016.46
2017-05-09T01:06:24.528Z,1016.47
2017-05-09T01:06:50.624Z,1016.46
2017-05-09T01:07:16.783Z,1016.46
2017-05-09T01:07:42.898Z,1016.44
2017-05-09T01:08:09.041Z,1016.48
2017-05-09T01:08:35.171Z,1016.49
2017-05-09T01:09:01.261Z,1016.48
2017-05-09T01:09:27.414Z,1016.46
2017-05-09T01:09:53.547Z,1016.43
2017-05-09T01:10:19.641Z,1016.43
2017-05-09T01:10:45.764Z,1016.43
2017-05-09T01:11:11.897Z,1016.43
2017-05-09T01:11:37.994Z,1016.42
2017-05-09T01:12:04.083Z,1016.43
2017-05-09T01:12:30.184Z,1016.45
2017-05-09T01:12:56.288Z,1016.44
2017-05-09T01:13:22.421Z,1016.44
2017-05-09T01:13:48.545Z,1016.44
2017-05-09T01:14:14.677Z,1016.44
2017-05-09T01:14:40.788Z,1016.46
2017-05-09T01:15:06.983Z,1016.44
2017-05-09T01:15:33.087Z,1016.43
2017-05-09T01:15:59.206Z,1016.41
2017-05-09T01:16:25.316Z,1016.46
2017-05-09T01:16:51.403Z,1016.41
2017-05-09T01:17:17.553Z,1016.44
2017-05-09T01:17:43.713Z,1016.41
2017-05-09T01:18:09.809Z,1016.45
2017-05-09T01:18:35.924Z,1016.41
2017-05-09T01:19:02.082Z,1016.44
2017-05-09T01:19:28.226Z,1016.39
2017-05-09T01:19:54.341Z,1016.4
2017-05-09T01:20:20.447Z,1016.4
2017-05-09T01:20:46.541Z,1016.41
2017-05-09T01:21:12.652Z,1016.4
2017-05-09T01:21:38.756Z,1016.42
2017-05-09T01:22:04.847Z,1016.4
2017-05-09T01:22:30.978Z,1016.4
2017-05-09T01:22:57.097Z,1016.4
2017-05-09T01:23:23.184Z,1016.4
2017-05-09T01:23:49.320Z,1016.42
2017-05-09T01:24:15.441Z,1016.38
2017-05-09T01:24:41.556Z,1016.37
2017-05-09T01:25:07.715Z,1016.41
2017-05-09T01:25:33.814Z,1016.41
2017-05-09T01:25:59.951Z,1016.38
2017-05-09T01:26:26.083Z,1016.36
2017-05-09T01:26:52.185Z,1016.36
2017-05-09T01:27:18.300Z,1016.36
2017-05-09T01:27:44.396Z,1016.33
2017-05-09T01:28:10.584Z,1016.38
2017-05-09T01:28:36.766Z,1016.34
2017-05-09T01:29:02.890Z,1016.36
2017-05-09T01:29:28.982Z,1016.35
2017-05-09T01:29:55.164Z,1016.32
2017-05-09T01:30:21.323Z,1016.31
2017-05-09T01:30:47.408Z,1016.3
2017-05-09T01:31:13.507Z,1016.32
2017-05-09T01:31:39.609Z,1016.31
2017-05-09T01:32:05.698Z,1016.32
2017-05-09T01:32:31.792Z,1016.31
2017-05-09T01:32:57.942Z,1016.3
2017-05-09T01:33:24.046Z,1016.27
2017-05-09T01:33:50.151Z,1016.32
2017-05-09T01:34:16.234Z,1016.28
2017-05-09T01:34:42.329Z,1016.29
2017-05-09T01:35:08.463Z,1016.31
2017-05-09T01:35:34.578Z,1016.27
2017-05-09T01:36:00.670Z,1016.27
2017-05-09T01:36:26.775Z,1016.25
2017-05-09T01:36:52.865Z,1016.25
2017-05-09T01:37:18.954Z,1016.26
2017-05-09T01:37:45.091Z,1016.21
2017-05-09T01:38:11.188Z,1016.24
2017-05-09T01:38:37.340Z,1016.22
2017-05-09T01:39:03.483Z,1016.26
2017-05-09T01:39:29.650Z,1016.24
2017-05-09T01:39:55.755Z,1016.2
2017-05-09T01:40:21.845Z,1016.24
2017-05-09T01:40:47.957Z,1016.25
2017-05-09T01:41:14.150Z,1016.25
2017-05-09T01:41:40.296Z,1016.19
2017-05-09T01:42:06.384Z,1016.25
2017-05-09T01:42:32.539Z,1016.24
2017-05-09T01:42:58.664Z,1016.24
2017-05-09T01:43:24.775Z,1016.27
2017-05-09T01:43:50.902Z,1016.25
2017-05-09T01:44:17.018Z,1016.23
2017-05-09T01:44:43.218Z,1016.23
2017-05-09T01:45:09.328Z,1016.24
2017-05-09T01:45:35.440Z,1016.21
2017-05-09T01:46:01.601Z,1016.22
2017-05-09T01:46:27.697Z,1016.21
2017-05-09T01:46:53.787Z,1016.25
2017-05-09T01:47:19.888Z,1016.18
2017-05-09T01:47:46.019Z,1016.18
2017-05-09T01:48:12.132Z,1016.2
2017-05-09T01:48:38.255Z,1016.22
2017-05-09T01:49:04.387Z,1016.17
2017-05-09T01:49:30.500Z,1016.2
2017-05-09T01:49:56.598Z,1016.2
2017-05-09T01:50:22.686Z,1016.19
2017-05-09T01:50:48.792Z,1016.16
2017-05-09T01:51:14.894Z,1016.19
2017-05-09T01:51:41.002Z,1016.21
2017-05-09T01:52:07.153Z,1016.18
2017-05-09T01:52:33.285Z,1016.18
2017-05-09T01:52:59.423Z,1016.24
2017-05-09T01:53:25.543Z,1016.24
2017-05-09T01:53:51.703Z,1016.17
2017-05-09T01:54:17.793Z,1016.24
2017-05-09T01:54:43.903Z,1016.18
2017-05-09T01:55:10.011Z,1016.28
2017-05-09T01:55:36.105Z,1016.27
2017-05-09T01:56:02.195Z,1016.24
2017-05-09T01:56:28.297Z,1016.26
2017-05-09T01:56:54.396Z,1016.3
2017-05-09T01:57:20.532Z,1016.23
2017-05-09T01:57:46.659Z,1016.26
2017-05-09T01:58:12.847Z,1016.28
2017-05-09T01:58:38.957Z,1016.31
2017-05-09T01:59:05.156Z,1016.32
2017-05-09T01:59:31.287Z,1016.3
2017-05-09T01:59:57.425Z,1016.26
2017-05-09T02:00:23.520Z,1016.29
2017-05-09T02:00:49.641Z,1016.32
2017-05-09T02:01:15.742Z,1016.32
2017-05-09T02:01:41.846Z,1016.32
2017-05-09T02:02:07.956Z,1016.32
2017-05-09T02:02:34.052Z,1016.31
2017-05-09T02:03:00.184Z,1016.29
2017-05-09T02:03:26.275Z,1016.26
2017-05-09T02:03:52.417Z,1016.3
2017-05-09T02:04:18.548Z,1016.32
2017-05-09T02:04:44.665Z,1016.3
2017-05-09T02:05:10.776Z,1016.3
2017-05-09T02:05:36.885Z,1016.31
2017-05-09T02:06:02.979Z,1016.34
2017-05-09T02:06:29.108Z,1016.32
2017-05-09T02:06:55.221Z,1016.34
2017-05-09T02:07:21.315Z,1016.36
2017-05-09T02:07:47.416Z,1016.35
2017-05-09T02:08:13.558Z,1016.36
2017-05-09T02:08:39.669Z,1016.36
2017-05-09T02:09:05.803Z,1016.4
2017-05-09T02:09:31.953Z,1016.39
2017-05-09T02:09:58.064Z,1016.41
2017-05-09T02:10:24.169Z,1016.36
2017-05-09T02:10:50.321Z,1016.37
2017-05-09T02:11:16.435Z,1016.38
2017-05-09T02:11:42.536Z,1016.38
2017-05-09T02:12:08.626Z,1016.37
2017-05-09T02:12:34.734Z,1016.39
2017-05-09T02:13:00.885Z,1016.39
2017-05-09T02:13:27.001Z,1016.37
2017-05-09T02:13:53.131Z,1016.4
2017-05-09T02:14:19.257Z,1016.39
2017-05-09T02:14:45.394Z,1016.41
2017-05-09T02:15:11.546Z,1016.35
2017-05-09T02:15:37.677Z,1016.4
2017-05-09T02:16:03.765Z,1016.41
2017-05-09T02:16:29.888Z,1016.39
2017-05-09T02:16:56.021Z,1016.42
2017-05-09T02:17:22.109Z,1016.43
2017-05-09T02:17:48.239Z,1016.4
2017-05-09T02:18:14.375Z,1016.45
2017-05-09T02:18:40.504Z,1016.44
2017-05-09T02:19:06.636Z,1016.4
2017-05-09T02:19:32.723Z,1016.44
2017-05-09T02:19:58.847Z,1016.43
2017-05-09T02:20:24.950Z,1016.4
2017-05-09T02:20:51.036Z,1016.44
2017-05-09T02:21:17.129Z,1016.4
2017-05-09T02:21:43.263Z,1016.45
2017-05-09T02:22:09.357Z,1016.44
2017-05-09T02:22:35.519Z,1016.45
2017-05-09T02:23:01.679Z,1016.43
2017-05-09T02:23:27.800Z,1016.44
2017-05-09T02:23:53.996Z,1016.45
2017-05-09T02:24:20.122Z,1016.4
2017-05-09T02:24:46.268Z,1016.44
2017-05-09T02:25:12.428Z,1016.43
2017-05-09T02:25:38.550Z,1016.38
2017-05-09T02:26:04.689Z,1016.39
2017-05-09T02:26:30.824Z,1016.38
2017-05-09T02:26:56.972Z,1016.4
2017-05-09T02:27:23.084Z,1016.39
2017-05-09T02:27:49.188Z,1016.4
2017-05-09T02:28:15.341Z,1016.41
2017-05-09T02:28:41.490Z,1016.37
2017-05-09T02:29:07.606Z,1016.4
2017-05-09T02:29:33.715Z,1016.33
2017-05-09T02:29:59.826Z,1016.4
2017-05-09T02:30:25.920Z,1016.4
2017-05-09T02:30:52.340Z,1016.36
2017-05-09T02:31:18.439Z,1016.32
2017-05-09T02:31:44.539Z,1016.37
2017-05-09T02:32:10.653Z,1016.37
2017-05-09T02:32:36.752Z,1016.3
2017-05-09T02:33:02.884Z,1016.33
2017-05-09T02:33:29.019Z,1016.32
2017-05-09T02:33:55.163Z,1016.32
2017-05-09T02:34:21.255Z,1016.33
2017-05-09T02:34:47.357Z,1016.33
2017-05-09T02:35:13.481Z,1016.34
2017-05-09T02:35:39.568Z,1016.35
2017-05-09T02:36:05.692Z,1016.33
2017-05-09T02:36:31.822Z,1016.32
2017-05-09T02:36:57.908Z,1016.35
2017-05-09T02:37:24.035Z,1016.35
2017-05-09T02:37:50.194Z,1016.35
2017-05-09T02:38:16.308Z,1016.37
2017-05-09T02:38:42.426Z,1016.34
2017-05-09T02:39:08.533Z,1016.35
2017-05-09T02:39:34.623Z,1016.35
2017-05-09T02:40:00.709Z,1016.35
2017-05-09T02:40:26.844Z,1016.34
2017-05-09T02:40:52.938Z,1016.37
2017-05-09T02:41:19.027Z,1016.36
2017-05-09T02:41:45.132Z,1016.34
2017-05-09T02:42:11.287Z,1016.35
2017-05-09T02:42:37.376Z,1016.35
2017-05-09T02:43:03.553Z,1016.37
2017-05-09T02:43:29.686Z,1016.39
2017-05-09T02:43:55.795Z,1016.39
2017-05-09T02:44:21.946Z,1016.35
2017-05-09T02:44:48.077Z,1016.37
2017-05-09T02:45:14.194Z,1016.32
2017-05-09T02:45:40.322Z,1016.31
2017-05-09T02:46:06.433Z,1016.35
2017-05-09T02:46:32.534Z,1016.3
2017-05-09T02:46:58.635Z,1016.36
2017-05-09T02:47:24.722Z,1016.34
2017-05-09T02:47:50.847Z,1016.39
2017-05-09T02:48:17.005Z,1016.33
2017-05-09T02:48:43.146Z,1016.33
2017-05-09T02:49:09.266Z,1016.36
2017-05-09T02:49:35.397Z,1016.32
2017-05-09T02:50:01.541Z,1016.34
2017-05-09T02:50:27.651Z,1016.33
2017-05-09T02:50:53.833Z,1016.36
2017-05-09T02:51:19.931Z,1016.35
2017-05-09T02:51:46.090Z,1016.35
2017-05-09T02:52:12.206Z,1016.36
2017-05-09T02:52:38.300Z,1016.35
2017-05-09T02:53:04.431Z,1016.36
2017-05-09T02:53:30.546Z,1016.35
2017-05-09T02:53:56.657Z,1016.32
2017-05-09T02:54:22.767Z,1016.33
2017-05-09T02:54:48.889Z,1016.28
2017-05-09T02:55:15.025Z,1016.29
2017-05-09T02:55:41.130Z,1016.28
2017-05-09T02:56:07.256Z,1016.31
2017-05-09T02:56:33.352Z,1016.28
2017-05-09T02:56:59.469Z,1016.29
2017-05-09T02:57:25.583Z,1016.28
2017-05-09T02:57:51.689Z,1016.27
2017-05-09T02:58:17.811Z,1016.29
2017-05-09T02:58:43.923Z,1016.27
2017-05-09T02:59:10.111Z,1016.24
2017-05-09T02:59:36.236Z,1016.26
2017-05-09T03:00:02.371Z,1016.21
2017-05-09T03:00:28.498Z,1016.24
2017-05-09T03:00:54.700Z,1016.17
2017-05-09T03:01:20.811Z,1016.21
2017-05-09T03:01:46.908Z,1016.2
2017-05-09T03:02:13.000Z,1016.19
2017-05-09T03:02:39.104Z,1016.2
2017-05-09T03:03:05.254Z,1016.16
2017-05-09T03:03:31.341Z,1016.18
2017-05-09T03:03:57.471Z,1016.19
2017-05-09T03:04:23.649Z,1016.21
2017-05-09T03:04:49.748Z,1016.22
2017-05-09T03:05:15.871Z,1016.21
2017-05-09T03:05:41.977Z,1016.18
2017-05-09T03:06:08.091Z,1016.19
2017-05-09T03:06:34.186Z,1016.19
2017-05-09T03:07:00.288Z,1016.21
2017-05-09T03:07:26.404Z,1016.24
2017-05-09T03:07:52.562Z,1016.25
2017-05-09T03:08:18.699Z,1016.23
2017-05-09T03:08:44.849Z,1016.25
2017-05-09T03:09:11.012Z,1016.18
2017-05-09T03:09:37.149Z,1016.21
2017-05-09T03:10:03.266Z,1016.2
2017-05-09T03:10:29.370Z,1016.19
2017-05-09T03:10:55.509Z,1016.14
2017-05-09T03:11:21.621Z,1016.17
2017-05-09T03:11:47.755Z,1016.15
2017-05-09T03:12:13.850Z,1016.13
2017-05-09T03:12:39.986Z,1016.18
2017-05-09T03:13:06.169Z,1016.19
2017-05-09T03:13:32.310Z,1016.15
2017-05-09T03:13:58.495Z,1016.11
2017-05-09T03:14:24.640Z,1016.11
2017-05-09T03:14:50.729Z,1016.12
2017-05-09T03:15:16.891Z,1016.14
2017-05-09T03:15:43.014Z,1016.13
2017-05-09T03:16:09.123Z,1016.1
2017-05-09T03:16:35.226Z,1016.12
2017-05-09T03:17:01.320Z,1016.13
2017-05-09T03:17:27.413Z,1016.13
2017-05-09T03:17:53.538Z,1016.11
2017-05-09T03:18:19.695Z,1016.09
2017-05-09T03:18:45.786Z,1016.1
2017-05-09T03:19:11.910Z,1016.11
2017-05-09T03:19:38.048Z,1016.06
2017-05-09T03:20:04.206Z,1016.05
2017-05-09T03:20:30.305Z,1016.05
2017-05-09T03:20:56.393Z,1016.02
2017-05-09T03:21:22.494Z,1016.02
2017-05-09T03:21:48.602Z,1016.03
2017-05-09T03:22:14.685Z,1016.06
2017-05-09T03:22:40.784Z,1016.09
2017-05-09T03:23:06.941Z,1016.11
2017-05-09T03:23:33.077Z,1016.11
2017-05-09T03:23:59.269Z,1016.12
2017-05-09T03:24:25.373Z,1016.11
2017-05-09T03:24:51.462Z,1016.14
2017-05-09T03:25:17.576Z,1016.13
2017-05-09T03:25:43.709Z,1016.19
2017-05-09T03:26:09.828Z,1016.21
2017-05-09T03:26:35.915Z,1016.21
2017-05-09T03:27:02.096Z,1016.17
2017-05-09T03:27:28.248Z,1016.17
2017-05-09T03:27:54.337Z,1016.21
2017-05-09T03:28:20.463Z,1016.2
2017-05-09T03:28:46.595Z,1016.23
2017-05-09T03:29:12.730Z,1016.17
2017-05-09T03:29:38.877Z,1016.18
2017-05-09T03:30:05.018Z,1016.2
2017-05-09T03:30:31.123Z,1016.18
2017-05-09T03:30:57.220Z,1016.16
2017-05-09T03:31:23.683Z,1016.18
2017-05-09T03:31:49.810Z,1016.22
2017-05-09T03:32:15.964Z,1016.18
2017-05-09T03:32:42.101Z,1016.18
2017-05-09T03:33:08.270Z,1016.2
2017-05-09T03:33:34.402Z,1016.22
2017-05-09T03:34:00.541Z,1016.18
2017-05-09T03:34:26.710Z,1016.25
2017-05-09T03:34:52.814Z,1016.26
2017-05-09T03:35:18.928Z,1016.22
2017-05-09T03:35:45.060Z,1016.22
2017-05-09T03:36:11.169Z,1016.25
2017-05-09T03:36:37.265Z,1016.21
2017-05-09T03:37:03.402Z,1016.2
2017-05-09T03:37:29.509Z,1016.24
2017-05-09T03:37:55.675Z,1016.2
2017-05-09T03:38:21.785Z,1016.25
2017-05-09T03:38:47.876Z,1016.21
2017-05-09T03:39:13.990Z,1016.2
2017-05-09T03:39:40.152Z,1016.22
2017-05-09T03:40:06.270Z,1016.23
2017-05-09T03:40:32.385Z,1016.19
2017-05-09T03:40:58.489Z,1016.17
2017-05-09T03:41:24.606Z,1016.16
2017-05-09T03:41:50.711Z,1016.16
2017-05-09T03:42:16.803Z,1016.18
2017-05-09T03:42:42.911Z,1016.15
2017-05-09T03:43:09.103Z,1016.17
2017-05-09T03:43:35.222Z,1016.13
2017-05-09T03:44:01.334Z,1016.12
2017-05-09T03:44:27.490Z,1016.14
2017-05-09T03:44:53.584Z,1016.13
2017-05-09T03:45:19.699Z,1016.16
2017-05-09T03:45:45.798Z,1016.13
2017-05-09T03:46:11.961Z,1016.17
2017-05-09T03:46:38.075Z,1016.19
2017-05-09T03:47:04.197Z,1016.16
2017-05-09T03:47:30.288Z,1016.14
2017-05-09T03:47:56.414Z,1016.16
2017-05-09T03:48:22.540Z,1016.17
2017-05-09T03:48:48.679Z,1016.13
2017-05-09T03:49:14.839Z,1016.13
2017-05-09T03:49:41.000Z,1016.12
2017-05-09T03:50:07.111Z,1016.16
2017-05-09T03:50:33.231Z,1016.11
2017-05-09T03:50:59.335Z,1016.12
2017-05-09T03:51:25.427Z,1016.16
2017-05-09T03:51:51.567Z,1016.14
2017-05-09T03:52:17.670Z,1016.13
2017-05-09T03:52:43.822Z,1016.15
2017-05-09T03:53:09.951Z,1016.14
2017-05-09T03:53:36.059Z,1016.15
2017-05-09T03:54:02.210Z,1016.15
2017-05-09T03:54:28.369Z,1016.13
2017-05-09T03:54:54.482Z,1016.14
2017-05-09T03:55:20.596Z,1016.16
2017-05-09T03:55:46.702Z,1016.15
2017-05-09T03:56:12.822Z,1016.15
2017-05-09T03:56:38.911Z,1016.15
2017-05-09T03:57:05.017Z,1016.14
2017-05-09T03:57:31.108Z,1016.18
2017-05-09T03:57:57.238Z,1016.15
2017-05-09T03:58:23.373Z,1016.18
2017-05-09T03:58:49.541Z,1016.17
2017-05-09T03:59:15.647Z,1016.17
2017-05-09T03:59:41.818Z,1016.17
2017-05-09T04:00:07.932Z,1016.17
2017-05-09T04:00:34.039Z,1016.15
2017-05-09T04:01:00.131Z,1016.18
2017-05-09T04:01:26.545Z,1016.18
2017-05-09T04:01:52.675Z,1016.12
2017-05-09T04:02:18.855Z,1016.12
2017-05-09T04:02:44.989Z,1016.18
2017-05-09T04:03:11.115Z,1016.14
2017-05-09T04:03:37.251Z,1016.18
2017-05-09T04:04:03.385Z,1016.19
2017-05-09T04:04:29.535Z,1016.18
2017-05-09T04:04:55.622Z,1016.22
2017-05-09T04:05:21.752Z,1016.22
2017-05-09T04:05:47.849Z,1016.25
2017-05-09T04:06:13.986Z,1016.21
2017-05-09T04:06:40.112Z,1016.21
2017-05-09T04:07:06.240Z,1016.22
2017-05-09T04:07:32.325Z,1016.26
2017-05-09T04:07:58.449Z,1016.23
2017-05-09T04:08:24.607Z,1016.24
2017-05-09T04:08:50.695Z,1016.21
2017-05-09T04:09:16.788Z,1016.27
2017-05-09T04:09:42.894Z,1016.28
2017-05-09T04:10:08.986Z,1016.23
2017-05-09T04:10:35.074Z,1016.27
2017-05-09T04:11:01.181Z,1016.28
2017-05-09T04:11:27.277Z,1016.26
2017-05-09T04:11:53.388Z,1016.3
2017-05-09T04:12:19.493Z,1016.29
2017-05-09T04:12:45.647Z,1016.33
2017-05-09T04:13:11.758Z,1016.26
2017-05-09T04:13:37.885Z,1016.31
2017-05-09T04:14:04.049Z,1016.31
2017-05-09T04:14:30.138Z,1016.3
2017-05-09T04:14:56.232Z,1016.33
2017-05-09T04:15:22.344Z,1016.33
2017-05-09T04:15:48.447Z,1016.32
2017-05-09T04:16:14.575Z,1016.33
2017-05-09T04:16:40.685Z,1016.31
2017-05-09T04:17:06.784Z,1016.31
2017-05-09T04:17:32.888Z,1016.31
2017-05-09T04:17:58.999Z,1016.33
2017-05-09T04:18:25.122Z,1016.31
2017-05-09T04:18:51.225Z,1016.33
2017-05-09T04:19:17.340Z,1016.27
2017-05-09T04:19:43.461Z,1016.32
2017-05-09T04:20:09.639Z,1016.33
2017-05-09T04:20:35.739Z,1016.31
2017-05-09T04:21:01.870Z,1016.32
2017-05-09T04:21:27.956Z,1016.3
2017-05-09T04:21:54.052Z,1016.27
2017-05-09T04:22:20.181Z,1016.27
2017-05-09T04:22:46.268Z,1016.27
2017-05-09T04:23:12.386Z,1016.25
2017-05-09T04:23:38.573Z,1016.27
2017-05-09T04:24:04.716Z,1016.25
2017-05-09T04:24:30.829Z,1016.24
2017-05-09T04:24:56.935Z,1016.21
2017-05-09T04:25:23.056Z,1016.24
2017-05-09T04:25:49.155Z,1016.27
2017-05-09T04:26:15.270Z,1016.25
2017-05-09T04:26:41.389Z,1016.26
2017-05-09T04:27:07.548Z,1016.24
2017-05-09T04:27:33.661Z,1016.25
2017-05-09T04:27:59.747Z,1016.24
2017-05-09T04:28:25.884Z,1016.24
2017-05-09T04:28:52.003Z,1016.24
2017-05-09T04:29:18.120Z,1016.23
2017-05-09T04:29:44.303Z,1016.27
2017-05-09T04:30:10.428Z,1016.25
2017-05-09T04:30:36.515Z,1016.21
2017-05-09T04:31:02.639Z,1016.22
2017-05-09T04:31:28.751Z,1016.21
2017-05-09T04:31:54.886Z,1016.2
2017-05-09T04:32:21.047Z,1016.19
2017-05-09T04:32:47.147Z,1016.19
2017-05-09T04:33:13.303Z,1016.21
2017-05-09T04:33:39.424Z,1016.16
2017-05-09T04:34:05.538Z,1016.19
2017-05-09T04:34:31.666Z,1016.19
2017-05-09T04:34:57.771Z,1016.15
2017-05-09T04:35:23.855Z,1016.15
2017-05-09T04:35:49.981Z,1016.14
2017-05-09T04:36:16.086Z,1016.13
2017-05-09T04:36:42.175Z,1016.16
2017-05-09T04:37:08.274Z,1016.14
2017-05-09T04:37:34.364Z,1016.12
2017-05-09T04:38:00.494Z,1016.14
2017-05-09T04:38:26.654Z,1016.12
2017-05-09T04:38:52.762Z,1016.13
2017-05-09T04:39:18.913Z,1016.12
2017-05-09T04:39:45.072Z,1016.1
2017-05-09T04:40:11.160Z,1016.11
2017-05-09T04:40:37.305Z,1016.08
2017-05-09T04:41:03.437Z,1016.09
2017-05-09T04:41:29.555Z,1016.11
2017-05-09T04:41:55.669Z,1016.12
2017-05-09T04:42:21.768Z,1016.12
2017-05-09T04:42:47.895Z,1016.09
2017-05-09T04:43:14.057Z,1016.12
2017-05-09T04:43:40.167Z,1016.06
2017-05-09T04:44:06.286Z,1016.09
2017-05-09T04:44:32.448Z,1016.1
2017-05-09T04:44:58.537Z,1016.08
2017-05-09T04:45:24.650Z,1016.11
2017-05-09T04:45:50.756Z,1016.07
2017-05-09T04:46:16.877Z,1016.1
2017-05-09T04:46:42.964Z,1016.1
2017-05-09T04:47:09.067Z,1016.1
2017-05-09T04:47:35.192Z,1016.09
2017-05-09T04:48:01.367Z,1016.11
2017-05-09T04:48:27.508Z,1016.12
2017-05-09T04:48:53.597Z,1016.09
2017-05-09T04:49:19.819Z,1016.09
2017-05-09T04:49:45.912Z,1016.11
2017-05-09T04:50:12.051Z,1016.09
2017-05-09T04:50:38.154Z,1016.08
2017-05-09T04:51:04.250Z,1016.08
2017-05-09T04:51:30.362Z,1016.1
2017-05-09T04:51:56.462Z,1016.1
2017-05-09T04:52:22.567Z,1016.08
2017-05-09T04:52:48.651Z,1016.08
2017-05-09T04:53:14.825Z,1016.1
2017-05-09T04:53:40.984Z,1016.11
2017-05-09T04:54:07.122Z,1016.08
2017-05-09T04:54:33.264Z,1016.05
2017-05-09T04:54:59.396Z,1016.08
2017-05-09T04:55:25.486Z,1016.05
2017-05-09T04:55:51.599Z,1016.02
2017-05-09T04:56:17.756Z,1016.05
2017-05-09T04:56:43.879Z,1016
2017-05-09T04:57:09.991Z,1016.01
2017-05-09T04:57:36.098Z,1015.99
2017-05-09T04:58:02.193Z,1016.01
2017-05-09T04:58:28.352Z,1015.96
2017-05-09T04:58:54.478Z,1015.97
2017-05-09T04:59:20.641Z,1016.01
2017-05-09T04:59:46.776Z,1016
2017-05-09T05:00:12.900Z,1016.01
2017-05-09T05:00:39.084Z,1016
2017-05-09T05:01:05.215Z,1016.01
2017-05-09T05:01:31.341Z,1016.01
2017-05-09T05:01:57.505Z,1016.01
2017-05-09T05:02:23.634Z,1015.98
2017-05-09T05:02:49.735Z,1016.03
2017-05-09T05:03:15.822Z,1016
2017-05-09T05:03:41.942Z,1016.01
2017-05-09T05:04:08.073Z,1016.02
2017-05-09T05:04:34.188Z,1016.03
2017-05-09T05:05:00.373Z,1016.03
2017-05-09T05:05:26.487Z,1016.01
2017-05-09T05:05:52.585Z,1016.02
2017-05-09T05:06:18.689Z,1016.02
2017-05-09T05:06:44.834Z,1016.04
2017-05-09T05:07:10.897Z,1016.03
2017-05-09T05:07:36.999Z,1016.03
2017-05-09T05:08:03.138Z,1016
2017-05-09T05:08:29.282Z,1016.01
2017-05-09T05:08:55.413Z,1016.04
2017-05-09T05:09:21.581Z,1015.99
2017-05-09T05:09:47.691Z,1016.01
2017-05-09T05:10:13.791Z,1016.02
2017-05-09T05:10:39.889Z,1015.99
2017-05-09T05:11:06.021Z,1016.02
2017-05-09T05:11:32.163Z,1016.06
2017-05-09T05:11:58.281Z,1016.04
2017-05-09T05:12:24.411Z,1016.07
2017-05-09T05:12:50.528Z,1016.06
2017-05-09T05:13:16.641Z,1016.05
2017-05-09T05:13:42.805Z,1016.04
2017-05-09T05:14:08.980Z,1016.02
2017-05-09T05:14:35.094Z,1016.03
2017-05-09T05:15:01.225Z,1016.02
2017-05-09T05:15:27.323Z,1016.02
2017-05-09T05:15:53.418Z,1016.01
2017-05-09T05:16:19.540Z,1016
2017-05-09T05:16:45.680Z,1016.01
2017-05-09T05:17:11.842Z,1016.05